sensor_id;sensor_type;location;lat;lon;timestamp;P1;durP1;ratioP1;P2;durP2;ratioP2
35128;SDS011;21301;43.626;10.580;2023-11-18T00:01:15;26.23;;;12.95;;
35128;SDS011;21301;43.626;10.580;2023-11-18T00:03:40;46.13;;;24.75;;
35128;SDS011;21301;43.626;10.580;2023-11-18T00:06:06;30.15;;;16.83;;
35128;SDS011;21301;43.626;10.580;2023-11-18T00:08:33;21.52;;;11.77;;
35128;SDS011;21301;43.626;10.580;2023-11-18T00:10:59;25.23;;;11.45;;
35128;SDS011;21301;43.626;10.580;2023-11-18T00:13:24;21.15;;;8.40;;
35128;SDS011;21301;43.626;10.580;2023-11-18T00:15:51;17.48;;;6.65;;
35128;SDS011;21301;43.626;10.580;2023-11-18T00:18:17;16.40;;;6.53;;
35128;SDS011;21301;43.626;10.580;2023-11-18T00:20:44;16.20;;;6.43;;
35128;SDS011;21301;43.626;10.580;2023-11-18T00:23:10;20.60;;;6.75;;
35128;SDS011;21301;43.626;10.580;2023-11-18T00:25:35;13.88;;;5.30;;
35128;SDS011;21301;43.626;10.580;2023-11-18T00:28:01;16.27;;;5.75;;
35128;SDS011;21301;43.626;10.580;2023-11-18T00:30:27;15.88;;;5.90;;
35128;SDS011;21301;43.626;10.580;2023-11-18T00:32:53;17.92;;;5.82;;
35128;SDS011;21301;43.626;10.580;2023-11-18T00:35:19;19.80;;;6.13;;
35128;SDS011;21301;43.626;10.580;2023-11-18T00:37:45;19.40;;;6.50;;
35128;SDS011;21301;43.626;10.580;2023-11-18T00:40:10;49.17;;;6.97;;
35128;SDS011;21301;43.626;10.580;2023-11-18T00:42:37;31.25;;;7.57;;
35128;SDS011;21301;43.626;10.580;2023-11-18T00:45:04;23.33;;;5.63;;
35128;SDS011;21301;43.626;10.580;2023-11-18T00:47:30;20.60;;;5.22;;
35128;SDS011;21301;43.626;10.580;2023-11-18T00:49:55;23.10;;;7.20;;
35128;SDS011;21301;43.626;10.580;2023-11-18T00:52:22;18.70;;;6.72;;
35128;SDS011;21301;43.626;10.580;2023-11-18T00:54:48;8.80;;;3.78;;
35128;SDS011;21301;43.626;10.580;2023-11-18T00:57:13;6.50;;;3.20;;
35128;SDS011;21301;43.626;10.580;2023-11-18T00:59:42;12.90;;;3.45;;
35128;SDS011;21301;43.626;10.580;2023-11-18T01:02:08;13.05;;;4.55;;
35128;SDS011;21301;43.626;10.580;2023-11-18T01:04:34;15.77;;;4.50;;
35128;SDS011;21301;43.626;10.580;2023-11-18T01:06:59;14.77;;;5.88;;
35128;SDS011;21301;43.626;10.580;2023-11-18T01:09:25;15.85;;;6.35;;
35128;SDS011;21301;43.626;10.580;2023-11-18T01:11:51;13.00;;;3.95;;
35128;SDS011;21301;43.626;10.580;2023-11-18T01:14:16;10.63;;;3.65;;
35128;SDS011;21301;43.626;10.580;2023-11-18T01:16:43;11.32;;;4.60;;
35128;SDS011;21301;43.626;10.580;2023-11-18T01:19:11;16.38;;;4.40;;
35128;SDS011;21301;43.626;10.580;2023-11-18T01:21:37;9.23;;;3.50;;
35128;SDS011;21301;43.626;10.580;2023-11-18T01:24:03;12.52;;;3.97;;
35128;SDS011;21301;43.626;10.580;2023-11-18T01:26:29;15.90;;;4.65;;
35128;SDS011;21301;43.626;10.580;2023-11-18T01:28:55;16.30;;;5.53;;
35128;SDS011;21301;43.626;10.580;2023-11-18T01:31:20;8.95;;;4.63;;
35128;SDS011;21301;43.626;10.580;2023-11-18T01:33:46;10.82;;;4.28;;
35128;SDS011;21301;43.626;10.580;2023-11-18T01:36:15;11.82;;;3.35;;
35128;SDS011;21301;43.626;10.580;2023-11-18T01:38:41;8.77;;;3.75;;
35128;SDS011;21301;43.626;10.580;2023-11-18T01:41:07;10.68;;;4.30;;
35128;SDS011;21301;43.626;10.580;2023-11-18T01:43:34;7.13;;;2.38;;
35128;SDS011;21301;43.626;10.580;2023-11-18T01:46:02;7.55;;;2.90;;
35128;SDS011;21301;43.626;10.580;2023-11-18T01:48:29;7.20;;;2.50;;
35128;SDS011;21301;43.626;10.580;2023-11-18T01:50:58;5.20;;;2.28;;
35128;SDS011;21301;43.626;10.580;2023-11-18T01:53:24;9.63;;;3.38;;
35128;SDS011;21301;43.626;10.580;2023-11-18T01:55:52;9.40;;;3.42;;
35128;SDS011;21301;43.626;10.580;2023-11-18T01:58:17;6.95;;;2.70;;
35128;SDS011;21301;43.626;10.580;2023-11-18T02:00:45;7.78;;;2.85;;
35128;SDS011;21301;43.626;10.580;2023-11-18T02:03:12;5.70;;;2.33;;
35128;SDS011;21301;43.626;10.580;2023-11-18T02:05:38;6.25;;;2.30;;
35128;SDS011;21301;43.626;10.580;2023-11-18T02:08:04;6.15;;;2.70;;
35128;SDS011;21301;43.626;10.580;2023-11-18T02:10:33;7.93;;;2.35;;
35128;SDS011;21301;43.626;10.580;2023-11-18T02:13:10;5.85;;;2.30;;
35128;SDS011;21301;43.626;10.580;2023-11-18T02:15:45;12.07;;;2.25;;
35128;SDS011;21301;43.626;10.580;2023-11-18T02:18:11;8.52;;;3.28;;
35128;SDS011;21301;43.626;10.580;2023-11-18T02:20:38;6.43;;;2.92;;
35128;SDS011;21301;43.626;10.580;2023-11-18T02:23:05;9.73;;;2.38;;
35128;SDS011;21301;43.626;10.580;2023-11-18T02:25:33;6.90;;;3.08;;
35128;SDS011;21301;43.626;10.580;2023-11-18T02:27:59;6.47;;;2.25;;
35128;SDS011;21301;43.626;10.580;2023-11-18T02:30:25;6.72;;;2.45;;
35128;SDS011;21301;43.626;10.580;2023-11-18T02:32:58;4.55;;;1.88;;
35128;SDS011;21301;43.626;10.580;2023-11-18T02:35:32;6.85;;;3.08;;
35128;SDS011;21301;43.626;10.580;2023-11-18T02:38:02;7.80;;;2.53;;
35128;SDS011;21301;43.626;10.580;2023-11-18T02:40:33;8.48;;;2.15;;
35128;SDS011;21301;43.626;10.580;2023-11-18T02:43:01;6.30;;;2.58;;
35128;SDS011;21301;43.626;10.580;2023-11-18T02:45:32;4.40;;;1.90;;
35128;SDS011;21301;43.626;10.580;2023-11-18T02:48:01;5.30;;;2.33;;
35128;SDS011;21301;43.626;10.580;2023-11-18T02:50:28;8.45;;;2.00;;
35128;SDS011;21301;43.626;10.580;2023-11-18T02:52:54;5.18;;;2.00;;
35128;SDS011;21301;43.626;10.580;2023-11-18T02:55:20;8.00;;;2.88;;
35128;SDS011;21301;43.626;10.580;2023-11-18T02:57:50;9.40;;;3.80;;
35128;SDS011;21301;43.626;10.580;2023-11-18T03:00:16;7.32;;;2.80;;
35128;SDS011;21301;43.626;10.580;2023-11-18T03:02:46;17.40;;;3.35;;
35128;SDS011;21301;43.626;10.580;2023-11-18T03:05:13;14.95;;;3.05;;
35128;SDS011;21301;43.626;10.580;2023-11-18T03:07:46;16.77;;;3.55;;
35128;SDS011;21301;43.626;10.580;2023-11-18T03:10:18;10.52;;;2.65;;
35128;SDS011;21301;43.626;10.580;2023-11-18T03:12:47;16.10;;;2.97;;
35128;SDS011;21301;43.626;10.580;2023-11-18T03:15:17;18.13;;;5.03;;
35128;SDS011;21301;43.626;10.580;2023-11-18T03:17:47;13.38;;;2.22;;
35128;SDS011;21301;43.626;10.580;2023-11-18T03:20:21;16.20;;;2.17;;
35128;SDS011;21301;43.626;10.580;2023-11-18T03:22:48;16.80;;;2.05;;
35128;SDS011;21301;43.626;10.580;2023-11-18T03:25:16;32.15;;;2.50;;
35128;SDS011;21301;43.626;10.580;2023-11-18T03:27:43;9.18;;;1.95;;
35128;SDS011;21301;43.626;10.580;2023-11-18T03:30:12;12.30;;;1.75;;
35128;SDS011;21301;43.626;10.580;2023-11-18T03:32:38;5.47;;;1.75;;
35128;SDS011;21301;43.626;10.580;2023-11-18T03:35:05;11.68;;;2.70;;
35128;SDS011;21301;43.626;10.580;2023-11-18T03:37:40;4.65;;;1.40;;
35128;SDS011;21301;43.626;10.580;2023-11-18T03:40:10;10.45;;;2.22;;
35128;SDS011;21301;43.626;10.580;2023-11-18T03:42:37;7.35;;;2.83;;
35128;SDS011;21301;43.626;10.580;2023-11-18T03:45:03;6.28;;;2.28;;
35128;SDS011;21301;43.626;10.580;2023-11-18T03:47:29;4.85;;;1.85;;
35128;SDS011;21301;43.626;10.580;2023-11-18T03:49:56;4.05;;;1.60;;
35128;SDS011;21301;43.626;10.580;2023-11-18T03:52:22;5.97;;;1.70;;
35128;SDS011;21301;43.626;10.580;2023-11-18T03:54:48;3.95;;;1.60;;
35128;SDS011;21301;43.626;10.580;2023-11-18T03:57:14;7.72;;;2.00;;
35128;SDS011;21301;43.626;10.580;2023-11-18T03:59:39;9.30;;;2.20;;
35128;SDS011;21301;43.626;10.580;2023-11-18T04:02:06;4.68;;;2.83;;
35128;SDS011;21301;43.626;10.580;2023-11-18T04:04:32;5.78;;;2.40;;
35128;SDS011;21301;43.626;10.580;2023-11-18T04:06:58;5.65;;;1.90;;
35128;SDS011;21301;43.626;10.580;2023-11-18T04:09:26;4.72;;;1.90;;
35128;SDS011;21301;43.626;10.580;2023-11-18T04:11:52;6.22;;;3.08;;
35128;SDS011;21301;43.626;10.580;2023-11-18T04:14:17;10.15;;;3.67;;
35128;SDS011;21301;43.626;10.580;2023-11-18T04:16:47;7.97;;;2.47;;
35128;SDS011;21301;43.626;10.580;2023-11-18T04:19:14;6.68;;;2.13;;
35128;SDS011;21301;43.626;10.580;2023-11-18T04:21:40;12.23;;;2.30;;
35128;SDS011;21301;43.626;10.580;2023-11-18T04:24:06;7.90;;;1.98;;
35128;SDS011;21301;43.626;10.580;2023-11-18T04:26:32;12.02;;;3.42;;
35128;SDS011;21301;43.626;10.580;2023-11-18T04:28:57;8.35;;;2.83;;
35128;SDS011;21301;43.626;10.580;2023-11-18T04:31:24;24.85;;;3.75;;
35128;SDS011;21301;43.626;10.580;2023-11-18T04:33:50;12.68;;;3.10;;
35128;SDS011;21301;43.626;10.580;2023-11-18T04:36:16;7.68;;;2.78;;
35128;SDS011;21301;43.626;10.580;2023-11-18T04:38:42;14.15;;;2.70;;
35128;SDS011;21301;43.626;10.580;2023-11-18T04:41:11;8.13;;;2.17;;
35128;SDS011;21301;43.626;10.580;2023-11-18T04:43:37;7.38;;;2.70;;
35128;SDS011;21301;43.626;10.580;2023-11-18T04:46:05;7.20;;;2.83;;
35128;SDS011;21301;43.626;10.580;2023-11-18T04:48:31;11.05;;;2.88;;
35128;SDS011;21301;43.626;10.580;2023-11-18T04:50:58;16.38;;;3.28;;
35128;SDS011;21301;43.626;10.580;2023-11-18T04:53:23;10.43;;;2.65;;
35128;SDS011;21301;43.626;10.580;2023-11-18T04:55:51;10.60;;;2.78;;
35128;SDS011;21301;43.626;10.580;2023-11-18T04:58:16;14.63;;;3.72;;
35128;SDS011;21301;43.626;10.580;2023-11-18T05:00:42;10.35;;;2.25;;
35128;SDS011;21301;43.626;10.580;2023-11-18T05:03:08;20.02;;;3.08;;
35128;SDS011;21301;43.626;10.580;2023-11-18T05:05:38;10.25;;;2.75;;
35128;SDS011;21301;43.626;10.580;2023-11-18T05:08:05;22.42;;;4.40;;
35128;SDS011;21301;43.626;10.580;2023-11-18T05:10:34;13.75;;;3.42;;
35128;SDS011;21301;43.626;10.580;2023-11-18T05:13:01;7.18;;;2.78;;
35128;SDS011;21301;43.626;10.580;2023-11-18T05:15:27;12.55;;;3.30;;
35128;SDS011;21301;43.626;10.580;2023-11-18T05:17:54;14.80;;;3.75;;
35128;SDS011;21301;43.626;10.580;2023-11-18T05:20:20;19.58;;;4.45;;
35128;SDS011;21301;43.626;10.580;2023-11-18T05:22:46;13.50;;;3.47;;
35128;SDS011;21301;43.626;10.580;2023-11-18T05:25:13;8.55;;;3.13;;
35128;SDS011;21301;43.626;10.580;2023-11-18T05:27:38;20.75;;;3.35;;
35128;SDS011;21301;43.626;10.580;2023-11-18T05:30:09;14.70;;;3.55;;
35128;SDS011;21301;43.626;10.580;2023-11-18T05:32:35;13.82;;;3.22;;
35128;SDS011;21301;43.626;10.580;2023-11-18T05:35:01;16.42;;;3.88;;
35128;SDS011;21301;43.626;10.580;2023-11-18T05:37:30;25.23;;;4.32;;
35128;SDS011;21301;43.626;10.580;2023-11-18T05:40:00;15.20;;;3.92;;
35128;SDS011;21301;43.626;10.580;2023-11-18T05:42:35;18.55;;;3.80;;
35128;SDS011;21301;43.626;10.580;2023-11-18T05:45:02;23.05;;;3.97;;
35128;SDS011;21301;43.626;10.580;2023-11-18T05:47:29;18.33;;;3.50;;
35128;SDS011;21301;43.626;10.580;2023-11-18T05:49:55;15.40;;;3.78;;
35128;SDS011;21301;43.626;10.580;2023-11-18T05:52:21;13.95;;;3.50;;
35128;SDS011;21301;43.626;10.580;2023-11-18T05:54:47;14.65;;;3.05;;
35128;SDS011;21301;43.626;10.580;2023-11-18T05:57:16;11.38;;;3.15;;
35128;SDS011;21301;43.626;10.580;2023-11-18T05:59:42;14.60;;;3.47;;
35128;SDS011;21301;43.626;10.580;2023-11-18T06:02:08;13.80;;;3.70;;
35128;SDS011;21301;43.626;10.580;2023-11-18T06:04:38;20.33;;;3.08;;
35128;SDS011;21301;43.626;10.580;2023-11-18T06:07:03;9.80;;;2.45;;
35128;SDS011;21301;43.626;10.580;2023-11-18T06:09:30;15.18;;;2.17;;
35128;SDS011;21301;43.626;10.580;2023-11-18T06:11:55;24.33;;;3.15;;
35128;SDS011;21301;43.626;10.580;2023-11-18T06:14:21;16.75;;;2.85;;
35128;SDS011;21301;43.626;10.580;2023-11-18T06:16:47;19.52;;;2.45;;
35128;SDS011;21301;43.626;10.580;2023-11-18T06:19:13;14.63;;;2.15;;
35128;SDS011;21301;43.626;10.580;2023-11-18T06:21:40;12.85;;;2.03;;
35128;SDS011;21301;43.626;10.580;2023-11-18T06:24:05;7.13;;;1.75;;
35128;SDS011;21301;43.626;10.580;2023-11-18T06:26:31;12.10;;;1.50;;
35128;SDS011;21301;43.626;10.580;2023-11-18T06:29:01;2.67;;;1.30;;
35128;SDS011;21301;43.626;10.580;2023-11-18T06:31:26;3.15;;;1.45;;
35128;SDS011;21301;43.626;10.580;2023-11-18T06:33:54;2.75;;;1.33;;
35128;SDS011;21301;43.626;10.580;2023-11-18T06:36:20;6.70;;;1.30;;
35128;SDS011;21301;43.626;10.580;2023-11-18T06:38:46;5.60;;;1.50;;
35128;SDS011;21301;43.626;10.580;2023-11-18T06:41:16;5.28;;;1.50;;
35128;SDS011;21301;43.626;10.580;2023-11-18T06:43:46;3.50;;;1.25;;
35128;SDS011;21301;43.626;10.580;2023-11-18T06:46:27;3.90;;;1.50;;
35128;SDS011;21301;43.626;10.580;2023-11-18T06:49:02;4.78;;;2.20;;
35128;SDS011;21301;43.626;10.580;2023-11-18T06:51:29;5.90;;;1.60;;
35128;SDS011;21301;43.626;10.580;2023-11-18T06:53:57;8.07;;;2.20;;
35128;SDS011;21301;43.626;10.580;2023-11-18T06:56:23;8.02;;;2.65;;
35128;SDS011;21301;43.626;10.580;2023-11-18T06:58:49;6.25;;;2.40;;
35128;SDS011;21301;43.626;10.580;2023-11-18T07:01:15;6.07;;;2.42;;
35128;SDS011;21301;43.626;10.580;2023-11-18T07:03:42;8.23;;;2.40;;
35128;SDS011;21301;43.626;10.580;2023-11-18T07:06:09;10.77;;;3.30;;
35128;SDS011;21301;43.626;10.580;2023-11-18T07:08:37;8.20;;;7.40;;
35128;SDS011;21301;43.626;10.580;2023-11-18T07:11:04;24.17;;;21.65;;
35128;SDS011;21301;43.626;10.580;2023-11-18T07:13:31;16.27;;;15.18;;
35128;SDS011;21301;43.626;10.580;2023-11-18T07:16:02;13.02;;;12.02;;
35128;SDS011;21301;43.626;10.580;2023-11-18T07:18:28;26.17;;;24.67;;
35128;SDS011;21301;43.626;10.580;2023-11-18T07:21:00;33.53;;;31.45;;
35128;SDS011;21301;43.626;10.580;2023-11-18T07:23:28;69.88;;;66.35;;
35128;SDS011;21301;43.626;10.580;2023-11-18T07:25:54;52.08;;;49.53;;
35128;SDS011;21301;43.626;10.580;2023-11-18T07:28:21;31.70;;;30.00;;
35128;SDS011;21301;43.626;10.580;2023-11-18T07:30:47;14.00;;;12.65;;
35128;SDS011;21301;43.626;10.580;2023-11-18T07:33:16;9.95;;;9.25;;
35128;SDS011;21301;43.626;10.580;2023-11-18T07:35:42;12.63;;;11.70;;
35128;SDS011;21301;43.626;10.580;2023-11-18T07:38:08;10.30;;;9.48;;
35128;SDS011;21301;43.626;10.580;2023-11-18T07:40:36;6.80;;;5.57;;
35128;SDS011;21301;43.626;10.580;2023-11-18T07:43:03;5.90;;;5.13;;
35128;SDS011;21301;43.626;10.580;2023-11-18T07:45:34;5.63;;;4.70;;
35128;SDS011;21301;43.626;10.580;2023-11-18T07:48:04;6.00;;;3.83;;
35128;SDS011;21301;43.626;10.580;2023-11-18T07:50:36;7.88;;;3.75;;
35128;SDS011;21301;43.626;10.580;2023-11-18T07:53:02;5.32;;;2.75;;
35128;SDS011;21301;43.626;10.580;2023-11-18T07:55:31;7.20;;;3.38;;
35128;SDS011;21301;43.626;10.580;2023-11-18T07:57:59;6.20;;;3.28;;
35128;SDS011;21301;43.626;10.580;2023-11-18T08:00:27;6.93;;;3.33;;
35128;SDS011;21301;43.626;10.580;2023-11-18T08:02:56;6.25;;;2.90;;
35128;SDS011;21301;43.626;10.580;2023-11-18T08:05:25;7.78;;;2.95;;
35128;SDS011;21301;43.626;10.580;2023-11-18T08:07:50;4.03;;;2.20;;
35128;SDS011;21301;43.626;10.580;2023-11-18T08:10:16;5.32;;;2.60;;
35128;SDS011;21301;43.626;10.580;2023-11-18T08:12:44;6.30;;;2.78;;
35128;SDS011;21301;43.626;10.580;2023-11-18T08:15:10;7.32;;;3.47;;
35128;SDS011;21301;43.626;10.580;2023-11-18T08:17:36;7.22;;;3.30;;
35128;SDS011;21301;43.626;10.580;2023-11-18T08:20:02;8.27;;;3.50;;
35128;SDS011;21301;43.626;10.580;2023-11-18T08:22:40;8.13;;;3.90;;
35128;SDS011;21301;43.626;10.580;2023-11-18T08:25:10;7.55;;;3.60;;
35128;SDS011;21301;43.626;10.580;2023-11-18T08:27:38;8.10;;;3.28;;
35128;SDS011;21301;43.626;10.580;2023-11-18T08:30:10;7.65;;;4.35;;
35128;SDS011;21301;43.626;10.580;2023-11-18T08:32:40;10.55;;;4.13;;
35128;SDS011;21301;43.626;10.580;2023-11-18T08:37:38;10.88;;;3.58;;
35128;SDS011;21301;43.626;10.580;2023-11-18T08:40:04;14.18;;;4.80;;
35128;SDS011;21301;43.626;10.580;2023-11-18T08:42:42;8.90;;;4.05;;
35128;SDS011;21301;43.626;10.580;2023-11-18T08:45:14;11.68;;;4.82;;
35128;SDS011;21301;43.626;10.580;2023-11-18T08:47:47;10.60;;;3.75;;
35128;SDS011;21301;43.626;10.580;2023-11-18T08:50:14;7.20;;;4.05;;
35128;SDS011;21301;43.626;10.580;2023-11-18T08:52:41;9.63;;;5.05;;
35128;SDS011;21301;43.626;10.580;2023-11-18T08:55:15;10.70;;;5.25;;
35128;SDS011;21301;43.626;10.580;2023-11-18T08:57:44;10.13;;;4.57;;
35128;SDS011;21301;43.626;10.580;2023-11-18T09:00:30;9.63;;;5.00;;
35128;SDS011;21301;43.626;10.580;2023-11-18T09:03:34;7.90;;;4.53;;
35128;SDS011;21301;43.626;10.580;2023-11-18T09:06:03;9.85;;;4.70;;
35128;SDS011;21301;43.626;10.580;2023-11-18T09:08:34;7.90;;;4.03;;
35128;SDS011;21301;43.626;10.580;2023-11-18T09:11:02;7.03;;;3.78;;
35128;SDS011;21301;43.626;10.580;2023-11-18T09:16:22;6.65;;;3.45;;
35128;SDS011;21301;43.626;10.580;2023-11-18T09:18:51;6.63;;;3.75;;
35128;SDS011;21301;43.626;10.580;2023-11-18T09:21:17;7.32;;;3.42;;
35128;SDS011;21301;43.626;10.580;2023-11-18T09:23:50;8.13;;;2.83;;
35128;SDS011;21301;43.626;10.580;2023-11-18T09:26:16;7.97;;;3.70;;
35128;SDS011;21301;43.626;10.580;2023-11-18T09:28:42;9.13;;;3.80;;
35128;SDS011;21301;43.626;10.580;2023-11-18T09:31:10;7.38;;;3.17;;
35128;SDS011;21301;43.626;10.580;2023-11-18T09:33:37;7.07;;;2.80;;
35128;SDS011;21301;43.626;10.580;2023-11-18T09:36:05;8.07;;;3.10;;
35128;SDS011;21301;43.626;10.580;2023-11-18T09:38:36;8.32;;;3.60;;
35128;SDS011;21301;43.626;10.580;2023-11-18T09:41:03;6.70;;;3.97;;
35128;SDS011;21301;43.626;10.580;2023-11-18T09:43:32;11.73;;;3.78;;
35128;SDS011;21301;43.626;10.580;2023-11-18T09:46:04;7.22;;;3.13;;
35128;SDS011;21301;43.626;10.580;2023-11-18T09:48:46;10.27;;;3.72;;
35128;SDS011;21301;43.626;10.580;2023-11-18T09:51:22;10.48;;;3.35;;
35128;SDS011;21301;43.626;10.580;2023-11-18T09:53:49;7.80;;;3.30;;
35128;SDS011;21301;43.626;10.580;2023-11-18T10:02:00;8.18;;;3.00;;
35128;SDS011;21301;43.626;10.580;2023-11-18T10:04:29;11.90;;;3.22;;
35128;SDS011;21301;43.626;10.580;2023-11-18T10:06:56;7.38;;;3.17;;
35128;SDS011;21301;43.626;10.580;2023-11-18T10:09:25;9.77;;;3.47;;
35128;SDS011;21301;43.626;10.580;2023-11-18T10:12:05;6.65;;;3.05;;
35128;SDS011;21301;43.626;10.580;2023-11-18T10:14:33;6.88;;;3.00;;
35128;SDS011;21301;43.626;10.580;2023-11-18T10:17:07;5.72;;;3.15;;
35128;SDS011;21301;43.626;10.580;2023-11-18T10:19:52;6.88;;;2.92;;
35128;SDS011;21301;43.626;10.580;2023-11-18T10:22:22;11.07;;;3.17;;
35128;SDS011;21301;43.626;10.580;2023-11-18T10:24:49;7.82;;;3.47;;
35128;SDS011;21301;43.626;10.580;2023-11-18T10:27:20;8.40;;;3.20;;
35128;SDS011;21301;43.626;10.580;2023-11-18T10:29:50;7.70;;;3.17;;
35128;SDS011;21301;43.626;10.580;2023-11-18T10:32:23;5.70;;;2.67;;
35128;SDS011;21301;43.626;10.580;2023-11-18T10:34:55;7.28;;;2.75;;
35128;SDS011;21301;43.626;10.580;2023-11-18T10:37:22;8.07;;;3.30;;
35128;SDS011;21301;43.626;10.580;2023-11-18T10:39:49;10.75;;;3.53;;
35128;SDS011;21301;43.626;10.580;2023-11-18T10:42:18;7.38;;;2.72;;
35128;SDS011;21301;43.626;10.580;2023-11-18T10:44:56;6.93;;;3.75;;
35128;SDS011;21301;43.626;10.580;2023-11-18T10:47:24;9.20;;;4.25;;
35128;SDS011;21301;43.626;10.580;2023-11-18T10:49:52;7.38;;;3.40;;
35128;SDS011;21301;43.626;10.580;2023-11-18T10:52:21;9.88;;;4.13;;
35128;SDS011;21301;43.626;10.580;2023-11-18T10:54:52;12.27;;;4.15;;
35128;SDS011;21301;43.626;10.580;2023-11-18T10:57:19;8.45;;;3.83;;
35128;SDS011;21301;43.626;10.580;2023-11-18T11:00:00;9.38;;;3.83;;
35128;SDS011;21301;43.626;10.580;2023-11-18T11:02:31;8.47;;;4.00;;
35128;SDS011;21301;43.626;10.580;2023-11-18T11:05:03;7.35;;;3.40;;
35128;SDS011;21301;43.626;10.580;2023-11-18T11:07:29;13.93;;;3.35;;
35128;SDS011;21301;43.626;10.580;2023-11-18T11:09:59;8.80;;;4.15;;
35128;SDS011;21301;43.626;10.580;2023-11-18T11:12:29;9.30;;;3.78;;
35128;SDS011;21301;43.626;10.580;2023-11-18T11:15:08;10.48;;;4.25;;
35128;SDS011;21301;43.626;10.580;2023-11-18T11:17:48;9.35;;;3.63;;
35128;SDS011;21301;43.626;10.580;2023-11-18T11:28:20;10.75;;;3.72;;
35128;SDS011;21301;43.626;10.580;2023-11-18T11:30:58;7.15;;;3.20;;
35128;SDS011;21301;43.626;10.580;2023-11-18T11:33:43;8.48;;;4.20;;
35128;SDS011;21301;43.626;10.580;2023-11-18T11:36:23;8.93;;;3.83;;
35128;SDS011;21301;43.626;10.580;2023-11-18T11:38:56;7.95;;;3.30;;
35128;SDS011;21301;43.626;10.580;2023-11-18T11:41:23;11.13;;;3.55;;
35128;SDS011;21301;43.626;10.580;2023-11-18T11:43:52;10.60;;;3.55;;
35128;SDS011;21301;43.626;10.580;2023-11-18T11:46:24;14.80;;;3.45;;
35128;SDS011;21301;43.626;10.580;2023-11-18T11:48:58;9.80;;;3.75;;
35128;SDS011;21301;43.626;10.580;2023-11-18T11:51:37;8.27;;;3.20;;
35128;SDS011;21301;43.626;10.580;2023-11-18T11:54:14;8.15;;;3.33;;
35128;SDS011;21301;43.626;10.580;2023-11-18T11:56:55;7.10;;;3.13;;
35128;SDS011;21301;43.626;10.580;2023-11-18T12:02:15;8.98;;;3.47;;
35128;SDS011;21301;43.626;10.580;2023-11-18T12:04:43;8.02;;;3.17;;
35128;SDS011;21301;43.626;10.580;2023-11-18T12:07:09;10.63;;;2.80;;
35128;SDS011;21301;43.626;10.580;2023-11-18T12:09:35;5.97;;;2.85;;
35128;SDS011;21301;43.626;10.580;2023-11-18T12:12:16;6.30;;;2.90;;
35128;SDS011;21301;43.626;10.580;2023-11-18T12:14:50;8.35;;;2.45;;
35128;SDS011;21301;43.626;10.580;2023-11-18T12:17:25;7.20;;;2.80;;
35128;SDS011;21301;43.626;10.580;2023-11-18T12:19:53;8.23;;;2.88;;
35128;SDS011;21301;43.626;10.580;2023-11-18T12:22:24;7.95;;;2.75;;
35128;SDS011;21301;43.626;10.580;2023-11-18T12:30:04;8.50;;;3.35;;
35128;SDS011;21301;43.626;10.580;2023-11-18T12:35:46;12.52;;;3.30;;
35128;SDS011;21301;43.626;10.580;2023-11-18T12:38:26;8.15;;;3.08;;
35128;SDS011;21301;43.626;10.580;2023-11-18T12:49:07;7.07;;;3.13;;
35128;SDS011;21301;43.626;10.580;2023-11-18T12:51:43;6.28;;;2.90;;
35128;SDS011;21301;43.626;10.580;2023-11-18T12:54:09;8.95;;;3.47;;
35128;SDS011;21301;43.626;10.580;2023-11-18T12:56:37;5.53;;;2.85;;
35128;SDS011;21301;43.626;10.580;2023-11-18T12:59:09;5.97;;;2.63;;
35128;SDS011;21301;43.626;10.580;2023-11-18T13:01:38;8.02;;;2.47;;
35128;SDS011;21301;43.626;10.580;2023-11-18T13:04:07;6.10;;;2.80;;
35128;SDS011;21301;43.626;10.580;2023-11-18T13:06:34;8.02;;;3.22;;
35128;SDS011;21301;43.626;10.580;2023-11-18T13:09:00;21.45;;;12.35;;
35128;SDS011;21301;43.626;10.580;2023-11-18T13:11:31;6.75;;;3.28;;
35128;SDS011;21301;43.626;10.580;2023-11-18T13:13:58;7.00;;;3.20;;
35128;SDS011;21301;43.626;10.580;2023-11-18T13:16:28;7.45;;;3.40;;
35128;SDS011;21301;43.626;10.580;2023-11-18T13:18:53;5.30;;;2.70;;
35128;SDS011;21301;43.626;10.580;2023-11-18T13:21:21;9.65;;;4.03;;
35128;SDS011;21301;43.626;10.580;2023-11-18T13:23:48;5.35;;;3.13;;
35128;SDS011;21301;43.626;10.580;2023-11-18T13:26:18;8.50;;;3.30;;
35128;SDS011;21301;43.626;10.580;2023-11-18T13:28:47;7.93;;;3.22;;
35128;SDS011;21301;43.626;10.580;2023-11-18T13:31:14;8.50;;;3.70;;
35128;SDS011;21301;43.626;10.580;2023-11-18T13:33:42;5.63;;;2.65;;
35128;SDS011;21301;43.626;10.580;2023-11-18T13:36:08;5.45;;;2.97;;
35128;SDS011;21301;43.626;10.580;2023-11-18T13:38:37;5.85;;;2.65;;
35128;SDS011;21301;43.626;10.580;2023-11-18T13:41:07;5.20;;;2.85;;
35128;SDS011;21301;43.626;10.580;2023-11-18T13:43:46;7.63;;;3.08;;
35128;SDS011;21301;43.626;10.580;2023-11-18T13:46:12;5.90;;;2.72;;
35128;SDS011;21301;43.626;10.580;2023-11-18T13:48:39;5.45;;;3.08;;
35128;SDS011;21301;43.626;10.580;2023-11-18T13:51:12;7.30;;;2.53;;
35128;SDS011;21301;43.626;10.580;2023-11-18T13:53:38;8.05;;;3.53;;
35128;SDS011;21301;43.626;10.580;2023-11-18T13:56:06;6.32;;;2.55;;
35128;SDS011;21301;43.626;10.580;2023-11-18T13:58:34;7.03;;;3.47;;
35128;SDS011;21301;43.626;10.580;2023-11-18T14:01:06;10.85;;;3.05;;
35128;SDS011;21301;43.626;10.580;2023-11-18T14:03:36;6.97;;;2.85;;
35128;SDS011;21301;43.626;10.580;2023-11-18T14:06:08;9.35;;;3.65;;
35128;SDS011;21301;43.626;10.580;2023-11-18T14:08:40;7.65;;;3.17;;
35128;SDS011;21301;43.626;10.580;2023-11-18T14:11:07;9.18;;;4.13;;
35128;SDS011;21301;43.626;10.580;2023-11-18T14:13:35;10.27;;;3.50;;
35128;SDS011;21301;43.626;10.580;2023-11-18T14:16:02;7.30;;;3.10;;
35128;SDS011;21301;43.626;10.580;2023-11-18T14:18:29;7.15;;;3.40;;
35128;SDS011;21301;43.626;10.580;2023-11-18T14:20:54;5.45;;;2.85;;
35128;SDS011;21301;43.626;10.580;2023-11-18T14:23:20;8.80;;;3.33;;
35128;SDS011;21301;43.626;10.580;2023-11-18T14:25:47;6.90;;;3.33;;
35128;SDS011;21301;43.626;10.580;2023-11-18T14:28:13;8.80;;;3.15;;
35128;SDS011;21301;43.626;10.580;2023-11-18T14:30:39;5.80;;;2.72;;
35128;SDS011;21301;43.626;10.580;2023-11-18T14:33:05;5.93;;;2.67;;
35128;SDS011;21301;43.626;10.580;2023-11-18T14:35:32;7.95;;;3.33;;
35128;SDS011;21301;43.626;10.580;2023-11-18T14:38:01;9.07;;;2.88;;
35128;SDS011;21301;43.626;10.580;2023-11-18T14:40:27;7.20;;;3.35;;
35128;SDS011;21301;43.626;10.580;2023-11-18T14:42:53;8.68;;;3.28;;
35128;SDS011;21301;43.626;10.580;2023-11-18T14:45:19;6.72;;;2.83;;
35128;SDS011;21301;43.626;10.580;2023-11-18T14:47:46;7.90;;;3.55;;
35128;SDS011;21301;43.626;10.580;2023-11-18T14:50:23;7.85;;;2.95;;
35128;SDS011;21301;43.626;10.580;2023-11-18T14:52:51;9.13;;;3.58;;
35128;SDS011;21301;43.626;10.580;2023-11-18T14:55:24;7.78;;;4.07;;
35128;SDS011;21301;43.626;10.580;2023-11-18T14:57:50;6.95;;;3.25;;
35128;SDS011;21301;43.626;10.580;2023-11-18T15:00:16;6.85;;;3.08;;
35128;SDS011;21301;43.626;10.580;2023-11-18T15:02:47;11.38;;;3.72;;
35128;SDS011;21301;43.626;10.580;2023-11-18T15:05:14;6.45;;;2.78;;
35128;SDS011;21301;43.626;10.580;2023-11-18T15:07:50;6.88;;;3.53;;
35128;SDS011;21301;43.626;10.580;2023-11-18T15:10:18;9.48;;;3.90;;
35128;SDS011;21301;43.626;10.580;2023-11-18T15:12:49;7.63;;;3.85;;
35128;SDS011;21301;43.626;10.580;2023-11-18T15:15:21;9.07;;;2.88;;